Terminal Aerodrome Forecast
Issued by NWS Charleston, WV

Current Version | Previous Version | Graphics & Text | Print | Product List | Glossary On
Versions: 1 2 3 4 5 6 7 8 9 10 11 12 13 14 15 16 17 18 19 20 21 22 23
000
FTUS41 KRLX 182300
TAFCRW
TAF
KCRW 182333Z 1900/1924 07008KT P6SM SCT070
     FM190600 10007KT P6SM SCT070
     FM191100 11013G22KT P6SM BKN050
     FM191400 12015G25KT 6SM -SHRA BKN035 OVC060
     FM192200 14014G23KT 6SM -SHRA BKN035=

USA.gov is the U.S. government's official web portal to all federal, state and local government web resources and services.